sensor_id;sensor_type;location;lat;lon;timestamp;P1;durP1;ratioP1;P2;durP2;ratioP2
49962;SDS011;36180;57.678;11.910;2023-05-27T00:00:59;37.53;;;6.50;;
49962;SDS011;36180;57.678;11.910;2023-05-27T00:03:26;31.15;;;6.82;;
49962;SDS011;36180;57.678;11.910;2023-05-27T00:05:54;35.83;;;6.38;;
49962;SDS011;36180;57.678;11.910;2023-05-27T00:08:21;36.35;;;6.63;;
49962;SDS011;36180;57.678;11.910;2023-05-27T00:10:48;36.10;;;6.93;;
49962;SDS011;36180;57.678;11.910;2023-05-27T00:13:15;34.53;;;7.22;;
49962;SDS011;36180;57.678;11.910;2023-05-27T00:15:43;32.30;;;6.25;;
49962;SDS011;36180;57.678;11.910;2023-05-27T00:18:10;38.55;;;6.75;;
49962;SDS011;36180;57.678;11.910;2023-05-27T00:20:37;34.53;;;5.72;;
49962;SDS011;36180;57.678;11.910;2023-05-27T00:23:06;38.00;;;7.10;;
49962;SDS011;36180;57.678;11.910;2023-05-27T00:25:33;36.40;;;6.35;;
49962;SDS011;36180;57.678;11.910;2023-05-27T00:28:00;43.00;;;6.75;;
49962;SDS011;36180;57.678;11.910;2023-05-27T00:30:27;32.55;;;6.50;;
49962;SDS011;36180;57.678;11.910;2023-05-27T00:32:54;32.00;;;5.88;;
49962;SDS011;36180;57.678;11.910;2023-05-27T00:35:21;34.35;;;6.68;;
49962;SDS011;36180;57.678;11.910;2023-05-27T00:37:48;33.50;;;6.40;;
49962;SDS011;36180;57.678;11.910;2023-05-27T00:40:18;38.10;;;6.50;;
49962;SDS011;36180;57.678;11.910;2023-05-27T00:42:46;33.58;;;5.93;;
49962;SDS011;36180;57.678;11.910;2023-05-27T00:45:14;30.40;;;5.93;;
49962;SDS011;36180;57.678;11.910;2023-05-27T00:47:41;33.70;;;6.78;;
49962;SDS011;36180;57.678;11.910;2023-05-27T00:50:08;34.53;;;7.03;;
49962;SDS011;36180;57.678;11.910;2023-05-27T00:52:36;38.17;;;7.72;;
49962;SDS011;36180;57.678;11.910;2023-05-27T00:55:04;36.28;;;6.57;;
49962;SDS011;36180;57.678;11.910;2023-05-27T00:57:34;34.63;;;6.97;;
49962;SDS011;36180;57.678;11.910;2023-05-27T01:00:02;46.78;;;7.43;;
49962;SDS011;36180;57.678;11.910;2023-05-27T01:02:34;33.38;;;6.60;;
49962;SDS011;36180;57.678;11.910;2023-05-27T01:05:06;28.35;;;7.30;;
49962;SDS011;36180;57.678;11.910;2023-05-27T01:07:34;31.80;;;6.50;;
49962;SDS011;36180;57.678;11.910;2023-05-27T01:10:10;43.15;;;7.70;;
49962;SDS011;36180;57.678;11.910;2023-05-27T01:12:43;32.05;;;6.90;;
49962;SDS011;36180;57.678;11.910;2023-05-27T01:15:13;37.38;;;7.50;;
49962;SDS011;36180;57.678;11.910;2023-05-27T01:17:40;43.63;;;8.13;;
49962;SDS011;36180;57.678;11.910;2023-05-27T01:20:08;36.65;;;7.45;;
49962;SDS011;36180;57.678;11.910;2023-05-27T01:22:38;42.30;;;7.55;;
49962;SDS011;36180;57.678;11.910;2023-05-27T01:25:07;35.95;;;7.38;;
49962;SDS011;36180;57.678;11.910;2023-05-27T01:27:34;34.05;;;6.85;;
49962;SDS011;36180;57.678;11.910;2023-05-27T01:30:02;34.60;;;7.78;;
49962;SDS011;36180;57.678;11.910;2023-05-27T01:32:32;38.78;;;7.18;;
49962;SDS011;36180;57.678;11.910;2023-05-27T01:35:07;33.55;;;7.03;;
49962;SDS011;36180;57.678;11.910;2023-05-27T01:37:40;39.10;;;7.75;;
49962;SDS011;36180;57.678;11.910;2023-05-27T01:40:09;43.60;;;8.10;;
49962;SDS011;36180;57.678;11.910;2023-05-27T01:42:38;42.88;;;7.20;;
49962;SDS011;36180;57.678;11.910;2023-05-27T01:45:06;31.23;;;6.78;;
49962;SDS011;36180;57.678;11.910;2023-05-27T01:47:35;32.35;;;6.55;;
49962;SDS011;36180;57.678;11.910;2023-05-27T01:50:03;38.95;;;7.55;;
49962;SDS011;36180;57.678;11.910;2023-05-27T01:52:31;27.35;;;6.72;;
49962;SDS011;36180;57.678;11.910;2023-05-27T01:55:01;33.40;;;7.03;;
49962;SDS011;36180;57.678;11.910;2023-05-27T01:57:30;30.95;;;6.75;;
49962;SDS011;36180;57.678;11.910;2023-05-27T01:59:58;31.27;;;6.20;;
49962;SDS011;36180;57.678;11.910;2023-05-27T02:02:25;31.77;;;6.78;;
49962;SDS011;36180;57.678;11.910;2023-05-27T02:04:52;33.22;;;6.20;;
49962;SDS011;36180;57.678;11.910;2023-05-27T02:07:19;27.30;;;6.03;;
49962;SDS011;36180;57.678;11.910;2023-05-27T02:09:48;33.17;;;6.22;;
49962;SDS011;36180;57.678;11.910;2023-05-27T02:12:18;34.95;;;7.60;;
49962;SDS011;36180;57.678;11.910;2023-05-27T02:14:45;37.17;;;6.90;;
49962;SDS011;36180;57.678;11.910;2023-05-27T02:17:13;35.75;;;7.07;;
49962;SDS011;36180;57.678;11.910;2023-05-27T02:19:42;30.70;;;6.82;;
49962;SDS011;36180;57.678;11.910;2023-05-27T02:22:09;33.13;;;6.82;;
49962;SDS011;36180;57.678;11.910;2023-05-27T02:24:37;28.65;;;5.80;;
49962;SDS011;36180;57.678;11.910;2023-05-27T02:27:04;30.90;;;6.47;;
49962;SDS011;36180;57.678;11.910;2023-05-27T02:29:33;33.15;;;6.05;;
49962;SDS011;36180;57.678;11.910;2023-05-27T02:32:00;32.53;;;7.30;;
49962;SDS011;36180;57.678;11.910;2023-05-27T02:34:29;32.50;;;6.90;;
49962;SDS011;36180;57.678;11.910;2023-05-27T02:36:56;26.70;;;5.47;;
49962;SDS011;36180;57.678;11.910;2023-05-27T02:39:23;32.03;;;6.20;;
49962;SDS011;36180;57.678;11.910;2023-05-27T02:41:50;25.23;;;5.20;;
49962;SDS011;36180;57.678;11.910;2023-05-27T02:44:17;28.63;;;6.47;;
49962;SDS011;36180;57.678;11.910;2023-05-27T02:46:46;27.15;;;6.18;;
49962;SDS011;36180;57.678;11.910;2023-05-27T02:49:13;24.55;;;5.35;;
49962;SDS011;36180;57.678;11.910;2023-05-27T02:51:40;23.20;;;5.30;;
49962;SDS011;36180;57.678;11.910;2023-05-27T02:54:07;26.85;;;6.03;;
49962;SDS011;36180;57.678;11.910;2023-05-27T02:56:34;26.70;;;5.60;;
49962;SDS011;36180;57.678;11.910;2023-05-27T02:59:02;21.00;;;4.53;;
49962;SDS011;36180;57.678;11.910;2023-05-27T03:01:29;26.00;;;5.57;;
49962;SDS011;36180;57.678;11.910;2023-05-27T03:03:57;21.70;;;5.50;;
49962;SDS011;36180;57.678;11.910;2023-05-27T03:06:24;28.25;;;5.32;;
49962;SDS011;36180;57.678;11.910;2023-05-27T03:08:51;24.23;;;5.18;;
49962;SDS011;36180;57.678;11.910;2023-05-27T03:11:18;20.02;;;5.18;;
49962;SDS011;36180;57.678;11.910;2023-05-27T03:13:46;19.90;;;6.05;;
49962;SDS011;36180;57.678;11.910;2023-05-27T03:16:13;24.33;;;5.22;;
49962;SDS011;36180;57.678;11.910;2023-05-27T03:18:40;26.02;;;6.40;;
49962;SDS011;36180;57.678;11.910;2023-05-27T03:21:09;21.77;;;5.30;;
49962;SDS011;36180;57.678;11.910;2023-05-27T03:23:36;21.92;;;5.45;;
49962;SDS011;36180;57.678;11.910;2023-05-27T03:26:03;23.33;;;5.53;;
49962;SDS011;36180;57.678;11.910;2023-05-27T03:28:31;26.35;;;5.38;;
49962;SDS011;36180;57.678;11.910;2023-05-27T03:30:59;19.48;;;4.85;;
49962;SDS011;36180;57.678;11.910;2023-05-27T03:33:52;19.15;;;4.78;;
49962;SDS011;36180;57.678;11.910;2023-05-27T03:36:20;22.02;;;5.13;;
49962;SDS011;36180;57.678;11.910;2023-05-27T03:38:48;24.60;;;5.30;;
49962;SDS011;36180;57.678;11.910;2023-05-27T03:41:15;20.85;;;5.88;;
49962;SDS011;36180;57.678;11.910;2023-05-27T03:43:43;20.15;;;5.32;;
49962;SDS011;36180;57.678;11.910;2023-05-27T03:46:12;29.02;;;5.28;;
49962;SDS011;36180;57.678;11.910;2023-05-27T03:48:39;20.15;;;5.25;;
49962;SDS011;36180;57.678;11.910;2023-05-27T03:51:06;22.10;;;5.60;;
49962;SDS011;36180;57.678;11.910;2023-05-27T03:53:35;23.20;;;4.40;;
49962;SDS011;36180;57.678;11.910;2023-05-27T03:56:02;19.50;;;5.13;;
49962;SDS011;36180;57.678;11.910;2023-05-27T03:58:30;21.05;;;5.22;;
49962;SDS011;36180;57.678;11.910;2023-05-27T04:00:57;14.43;;;4.47;;
49962;SDS011;36180;57.678;11.910;2023-05-27T04:03:24;21.30;;;4.95;;
49962;SDS011;36180;57.678;11.910;2023-05-27T04:05:52;17.30;;;5.05;;
49962;SDS011;36180;57.678;11.910;2023-05-27T04:08:20;21.83;;;5.07;;
49962;SDS011;36180;57.678;11.910;2023-05-27T04:10:48;17.23;;;4.30;;
49962;SDS011;36180;57.678;11.910;2023-05-27T04:13:16;19.75;;;5.53;;
49962;SDS011;36180;57.678;11.910;2023-05-27T04:15:43;20.83;;;4.57;;
49962;SDS011;36180;57.678;11.910;2023-05-27T04:18:11;16.85;;;4.45;;
49962;SDS011;36180;57.678;11.910;2023-05-27T04:20:38;23.95;;;4.82;;
49962;SDS011;36180;57.678;11.910;2023-05-27T04:23:08;15.82;;;4.15;;
49962;SDS011;36180;57.678;11.910;2023-05-27T04:25:36;20.50;;;4.13;;
49962;SDS011;36180;57.678;11.910;2023-05-27T04:28:06;12.80;;;3.95;;
49962;SDS011;36180;57.678;11.910;2023-05-27T04:30:38;15.48;;;4.45;;
49962;SDS011;36180;57.678;11.910;2023-05-27T04:33:14;15.85;;;4.88;;
49962;SDS011;36180;57.678;11.910;2023-05-27T04:35:42;18.65;;;4.45;;
49962;SDS011;36180;57.678;11.910;2023-05-27T04:38:10;20.13;;;4.45;;
49962;SDS011;36180;57.678;11.910;2023-05-27T04:40:49;15.75;;;4.78;;
49962;SDS011;36180;57.678;11.910;2023-05-27T04:43:45;13.45;;;4.18;;
49962;SDS011;36180;57.678;11.910;2023-05-27T04:46:17;22.63;;;5.05;;
49962;SDS011;36180;57.678;11.910;2023-05-27T04:48:44;15.50;;;4.28;;
49962;SDS011;36180;57.678;11.910;2023-05-27T04:51:12;11.25;;;3.33;;
49962;SDS011;36180;57.678;11.910;2023-05-27T04:53:41;19.52;;;4.22;;
49962;SDS011;36180;57.678;11.910;2023-05-27T04:56:09;17.92;;;4.22;;
49962;SDS011;36180;57.678;11.910;2023-05-27T04:58:40;18.13;;;4.20;;
49962;SDS011;36180;57.678;11.910;2023-05-27T05:01:11;16.63;;;3.83;;
49962;SDS011;36180;57.678;11.910;2023-05-27T05:03:45;22.52;;;4.85;;
49962;SDS011;36180;57.678;11.910;2023-05-27T05:06:19;24.27;;;4.22;;
49962;SDS011;36180;57.678;11.910;2023-05-27T05:08:48;15.93;;;3.70;;
49962;SDS011;36180;57.678;11.910;2023-05-27T05:11:17;17.77;;;4.25;;
49962;SDS011;36180;57.678;11.910;2023-05-27T05:13:45;16.42;;;3.78;;
49962;SDS011;36180;57.678;11.910;2023-05-27T05:16:14;16.75;;;3.58;;
49962;SDS011;36180;57.678;11.910;2023-05-27T05:18:41;16.70;;;3.65;;
49962;SDS011;36180;57.678;11.910;2023-05-27T05:21:09;14.52;;;3.38;;
49962;SDS011;36180;57.678;11.910;2023-05-27T05:23:39;20.95;;;3.40;;
49962;SDS011;36180;57.678;11.910;2023-05-27T05:26:08;17.60;;;3.75;;
49962;SDS011;36180;57.678;11.910;2023-05-27T05:28:39;16.83;;;3.65;;
49962;SDS011;36180;57.678;11.910;2023-05-27T05:31:07;13.48;;;3.47;;
49962;SDS011;36180;57.678;11.910;2023-05-27T05:33:36;13.18;;;3.78;;
49962;SDS011;36180;57.678;11.910;2023-05-27T05:36:05;11.88;;;3.05;;
49962;SDS011;36180;57.678;11.910;2023-05-27T05:38:45;14.65;;;2.80;;
49962;SDS011;36180;57.678;11.910;2023-05-27T05:41:13;14.77;;;4.15;;
49962;SDS011;36180;57.678;11.910;2023-05-27T05:43:40;9.63;;;2.63;;
49962;SDS011;36180;57.678;11.910;2023-05-27T05:46:08;13.00;;;2.80;;
49962;SDS011;36180;57.678;11.910;2023-05-27T05:48:36;12.32;;;3.33;;
49962;SDS011;36180;57.678;11.910;2023-05-27T05:51:07;15.03;;;3.37;;
49962;SDS011;36180;57.678;11.910;2023-05-27T05:53:34;12.45;;;3.33;;
49962;SDS011;36180;57.678;11.910;2023-05-27T05:56:01;12.60;;;3.13;;
49962;SDS011;36180;57.678;11.910;2023-05-27T05:58:28;11.25;;;3.00;;
49962;SDS011;36180;57.678;11.910;2023-05-27T06:00:56;11.00;;;3.30;;
49962;SDS011;36180;57.678;11.910;2023-05-27T06:03:30;14.60;;;2.75;;
49962;SDS011;36180;57.678;11.910;2023-05-27T06:06:00;12.02;;;3.28;;
49962;SDS011;36180;57.678;11.910;2023-05-27T06:08:29;12.10;;;3.60;;
49962;SDS011;36180;57.678;11.910;2023-05-27T06:11:04;15.95;;;3.83;;
49962;SDS011;36180;57.678;11.910;2023-05-27T06:13:33;12.98;;;3.40;;
49962;SDS011;36180;57.678;11.910;2023-05-27T06:16:04;14.88;;;3.60;;
49962;SDS011;36180;57.678;11.910;2023-05-27T06:18:32;13.82;;;4.00;;
49962;SDS011;36180;57.678;11.910;2023-05-27T06:21:00;14.43;;;3.35;;
49962;SDS011;36180;57.678;11.910;2023-05-27T06:23:34;14.00;;;3.63;;
49962;SDS011;36180;57.678;11.910;2023-05-27T06:26:10;11.32;;;3.35;;
49962;SDS011;36180;57.678;11.910;2023-05-27T06:28:44;19.08;;;3.53;;
49962;SDS011;36180;57.678;11.910;2023-05-27T06:31:13;15.40;;;3.38;;
49962;SDS011;36180;57.678;11.910;2023-05-27T06:33:40;9.55;;;3.08;;
49962;SDS011;36180;57.678;11.910;2023-05-27T06:36:09;10.45;;;3.28;;
49962;SDS011;36180;57.678;11.910;2023-05-27T06:38:39;17.15;;;3.47;;
49962;SDS011;36180;57.678;11.910;2023-05-27T06:41:06;9.10;;;3.13;;
49962;SDS011;36180;57.678;11.910;2023-05-27T06:43:37;14.68;;;3.80;;
49962;SDS011;36180;57.678;11.910;2023-05-27T06:46:22;13.48;;;3.55;;
49962;SDS011;36180;57.678;11.910;2023-05-27T06:49:04;13.02;;;3.35;;
49962;SDS011;36180;57.678;11.910;2023-05-27T06:51:33;12.40;;;3.22;;
49962;SDS011;36180;57.678;11.910;2023-05-27T06:54:01;16.55;;;3.40;;
49962;SDS011;36180;57.678;11.910;2023-05-27T06:56:34;14.07;;;3.50;;
49962;SDS011;36180;57.678;11.910;2023-05-27T06:59:37;18.83;;;3.97;;
49962;SDS011;36180;57.678;11.910;2023-05-27T07:02:04;12.57;;;3.28;;
49962;SDS011;36180;57.678;11.910;2023-05-27T07:04:31;13.07;;;3.13;;
49962;SDS011;36180;57.678;11.910;2023-05-27T07:07:03;14.73;;;3.13;;
49962;SDS011;36180;57.678;11.910;2023-05-27T07:09:30;10.73;;;3.72;;
49962;SDS011;36180;57.678;11.910;2023-05-27T07:11:57;12.88;;;3.85;;
49962;SDS011;36180;57.678;11.910;2023-05-27T07:14:47;13.50;;;3.13;;
49962;SDS011;36180;57.678;11.910;2023-05-27T07:17:14;12.35;;;3.05;;
49962;SDS011;36180;57.678;11.910;2023-05-27T07:19:42;8.20;;;2.35;;
49962;SDS011;36180;57.678;11.910;2023-05-27T07:22:16;12.20;;;3.10;;
49962;SDS011;36180;57.678;11.910;2023-05-27T07:24:44;13.52;;;3.17;;
49962;SDS011;36180;57.678;11.910;2023-05-27T07:27:11;13.13;;;2.95;;
49962;SDS011;36180;57.678;11.910;2023-05-27T07:29:43;12.02;;;3.13;;
49962;SDS011;36180;57.678;11.910;2023-05-27T07:32:13;10.48;;;3.22;;
49962;SDS011;36180;57.678;11.910;2023-05-27T07:34:44;13.73;;;3.03;;
49962;SDS011;36180;57.678;11.910;2023-05-27T07:37:11;11.27;;;2.80;;
49962;SDS011;36180;57.678;11.910;2023-05-27T07:39:39;7.80;;;2.63;;
49962;SDS011;36180;57.678;11.910;2023-05-27T07:42:08;5.97;;;2.38;;
49962;SDS011;36180;57.678;11.910;2023-05-27T07:44:35;5.75;;;2.05;;
49962;SDS011;36180;57.678;11.910;2023-05-27T07:47:03;11.98;;;3.42;;
49962;SDS011;36180;57.678;11.910;2023-05-27T07:49:31;11.23;;;2.90;;
49962;SDS011;36180;57.678;11.910;2023-05-27T07:52:23;7.25;;;2.55;;
49962;SDS011;36180;57.678;11.910;2023-05-27T07:54:53;6.78;;;2.53;;
49962;SDS011;36180;57.678;11.910;2023-05-27T07:57:21;8.50;;;3.08;;
49962;SDS011;36180;57.678;11.910;2023-05-27T07:59:49;9.55;;;3.17;;
49962;SDS011;36180;57.678;11.910;2023-05-27T08:02:16;15.73;;;3.35;;
49962;SDS011;36180;57.678;11.910;2023-05-27T08:04:44;14.00;;;3.55;;
49962;SDS011;36180;57.678;11.910;2023-05-27T08:07:38;10.57;;;3.50;;
49962;SDS011;36180;57.678;11.910;2023-05-27T08:10:24;12.57;;;4.07;;
49962;SDS011;36180;57.678;11.910;2023-05-27T08:13:15;11.45;;;3.20;;
49962;SDS011;36180;57.678;11.910;2023-05-27T08:16:20;13.02;;;3.63;;
49962;SDS011;36180;57.678;11.910;2023-05-27T08:19:09;18.42;;;3.28;;
49962;SDS011;36180;57.678;11.910;2023-05-27T08:21:48;15.35;;;4.05;;
49962;SDS011;36180;57.678;11.910;2023-05-27T08:24:33;15.88;;;3.60;;
49962;SDS011;36180;57.678;11.910;2023-05-27T08:27:20;15.10;;;4.38;;
49962;SDS011;36180;57.678;11.910;2023-05-27T08:30:02;14.38;;;4.38;;
49962;SDS011;36180;57.678;11.910;2023-05-27T08:32:44;9.53;;;3.67;;
49962;SDS011;36180;57.678;11.910;2023-05-27T08:35:11;18.33;;;4.55;;
49962;SDS011;36180;57.678;11.910;2023-05-27T08:37:38;19.20;;;4.22;;
49962;SDS011;36180;57.678;11.910;2023-05-27T08:40:07;16.20;;;3.88;;
49962;SDS011;36180;57.678;11.910;2023-05-27T08:42:44;11.93;;;4.10;;
49962;SDS011;36180;57.678;11.910;2023-05-27T08:45:13;15.65;;;4.05;;
49962;SDS011;36180;57.678;11.910;2023-05-27T08:47:41;17.15;;;4.10;;
49962;SDS011;36180;57.678;11.910;2023-05-27T08:50:14;15.10;;;3.85;;
49962;SDS011;36180;57.678;11.910;2023-05-27T08:52:44;19.42;;;4.82;;
49962;SDS011;36180;57.678;11.910;2023-05-27T08:55:14;14.50;;;3.97;;
49962;SDS011;36180;57.678;11.910;2023-05-27T08:57:46;14.77;;;4.03;;
49962;SDS011;36180;57.678;11.910;2023-05-27T09:00:15;17.17;;;4.00;;
49962;SDS011;36180;57.678;11.910;2023-05-27T09:02:43;15.73;;;4.53;;
49962;SDS011;36180;57.678;11.910;2023-05-27T09:05:10;13.07;;;3.70;;
49962;SDS011;36180;57.678;11.910;2023-05-27T09:07:38;16.05;;;4.85;;
49962;SDS011;36180;57.678;11.910;2023-05-27T09:10:06;14.70;;;4.43;;
49962;SDS011;36180;57.678;11.910;2023-05-27T09:12:34;10.40;;;3.90;;
49962;SDS011;36180;57.678;11.910;2023-05-27T09:15:03;12.93;;;3.90;;
49962;SDS011;36180;57.678;11.910;2023-05-27T09:17:31;13.30;;;4.53;;
49962;SDS011;36180;57.678;11.910;2023-05-27T09:19:58;15.82;;;4.32;;
49962;SDS011;36180;57.678;11.910;2023-05-27T09:22:25;14.80;;;4.40;;
49962;SDS011;36180;57.678;11.910;2023-05-27T09:24:55;17.10;;;4.85;;
49962;SDS011;36180;57.678;11.910;2023-05-27T09:27:25;13.23;;;4.15;;
49962;SDS011;36180;57.678;11.910;2023-05-27T09:29:53;19.95;;;4.75;;
49962;SDS011;36180;57.678;11.910;2023-05-27T09:32:25;13.45;;;4.25;;
49962;SDS011;36180;57.678;11.910;2023-05-27T09:34:53;14.43;;;4.00;;
49962;SDS011;36180;57.678;11.910;2023-05-27T09:37:23;16.88;;;4.20;;
49962;SDS011;36180;57.678;11.910;2023-05-27T09:39:57;19.80;;;4.55;;
49962;SDS011;36180;57.678;11.910;2023-05-27T09:42:24;12.60;;;4.05;;
49962;SDS011;36180;57.678;11.910;2023-05-27T09:44:52;16.38;;;4.70;;
49962;SDS011;36180;57.678;11.910;2023-05-27T09:47:20;14.90;;;4.38;;
49962;SDS011;36180;57.678;11.910;2023-05-27T09:49:51;17.00;;;4.22;;
49962;SDS011;36180;57.678;11.910;2023-05-27T09:52:19;15.65;;;4.80;;
49962;SDS011;36180;57.678;11.910;2023-05-27T09:54:48;17.40;;;4.28;;
49962;SDS011;36180;57.678;11.910;2023-05-27T09:57:16;19.17;;;4.43;;
49962;SDS011;36180;57.678;11.910;2023-05-27T09:59:43;17.75;;;4.28;;
49962;SDS011;36180;57.678;11.910;2023-05-27T10:02:12;13.20;;;4.22;;
49962;SDS011;36180;57.678;11.910;2023-05-27T10:04:42;11.98;;;4.10;;
49962;SDS011;36180;57.678;11.910;2023-05-27T10:07:11;17.42;;;4.57;;
49962;SDS011;36180;57.678;11.910;2023-05-27T10:09:38;17.88;;;4.88;;
49962;SDS011;36180;57.678;11.910;2023-05-27T10:12:06;17.85;;;4.90;;
49962;SDS011;36180;57.678;11.910;2023-05-27T10:14:33;16.08;;;4.30;;
49962;SDS011;36180;57.678;11.910;2023-05-27T10:17:00;22.25;;;4.75;;
49962;SDS011;36180;57.678;11.910;2023-05-27T10:19:27;14.38;;;4.53;;
49962;SDS011;36180;57.678;11.910;2023-05-27T10:21:54;16.23;;;4.60;;
49962;SDS011;36180;57.678;11.910;2023-05-27T10:24:32;16.42;;;5.20;;
49962;SDS011;36180;57.678;11.910;2023-05-27T10:27:00;14.10;;;5.13;;
49962;SDS011;36180;57.678;11.910;2023-05-27T10:29:34;15.32;;;4.63;;
49962;SDS011;36180;57.678;11.910;2023-05-27T10:32:02;15.27;;;4.90;;
49962;SDS011;36180;57.678;11.910;2023-05-27T10:34:33;18.00;;;4.75;;
49962;SDS011;36180;57.678;11.910;2023-05-27T10:37:00;18.98;;;4.95;;
49962;SDS011;36180;57.678;11.910;2023-05-27T10:39:28;17.88;;;4.80;;
49962;SDS011;36180;57.678;11.910;2023-05-27T10:41:56;14.63;;;4.60;;
49962;SDS011;36180;57.678;11.910;2023-05-27T10:44:27;16.17;;;4.88;;
49962;SDS011;36180;57.678;11.910;2023-05-27T10:47:01;16.60;;;4.88;;
49962;SDS011;36180;57.678;11.910;2023-05-27T10:49:32;15.10;;;4.78;;
49962;SDS011;36180;57.678;11.910;2023-05-27T10:52:04;14.63;;;4.43;;
49962;SDS011;36180;57.678;11.910;2023-05-27T10:54:35;18.98;;;5.25;;
49962;SDS011;36180;57.678;11.910;2023-05-27T10:57:04;18.05;;;4.93;;
49962;SDS011;36180;57.678;11.910;2023-05-27T10:59:36;16.85;;;4.68;;
49962;SDS011;36180;57.678;11.910;2023-05-27T11:02:07;16.13;;;4.43;;
49962;SDS011;36180;57.678;11.910;2023-05-27T11:04:34;19.42;;;4.55;;
49962;SDS011;36180;57.678;11.910;2023-05-27T11:07:01;17.27;;;5.10;;
49962;SDS011;36180;57.678;11.910;2023-05-27T11:09:28;15.63;;;4.57;;
49962;SDS011;36180;57.678;11.910;2023-05-27T11:11:56;16.40;;;4.50;;
49962;SDS011;36180;57.678;11.910;2023-05-27T11:14:24;22.35;;;5.35;;
49962;SDS011;36180;57.678;11.910;2023-05-27T11:16:51;13.50;;;4.57;;
49962;SDS011;36180;57.678;11.910;2023-05-27T11:19:19;18.40;;;5.05;;
49962;SDS011;36180;57.678;11.910;2023-05-27T11:21:48;21.30;;;5.07;;
49962;SDS011;36180;57.678;11.910;2023-05-27T11:24:15;20.20;;;5.32;;
49962;SDS011;36180;57.678;11.910;2023-05-27T11:26:43;16.83;;;4.70;;
49962;SDS011;36180;57.678;11.910;2023-05-27T11:29:11;22.20;;;5.88;;
49962;SDS011;36180;57.678;11.910;2023-05-27T11:31:40;21.45;;;4.55;;
49962;SDS011;36180;57.678;11.910;2023-05-27T11:34:11;17.15;;;4.63;;
49962;SDS011;36180;57.678;11.910;2023-05-27T11:36:39;20.30;;;5.13;;
49962;SDS011;36180;57.678;11.910;2023-05-27T11:39:10;19.23;;;4.90;;
49962;SDS011;36180;57.678;11.910;2023-05-27T11:41:47;21.60;;;5.27;;
49962;SDS011;36180;57.678;11.910;2023-05-27T11:44:15;17.65;;;5.57;;
49962;SDS011;36180;57.678;11.910;2023-05-27T11:46:44;18.58;;;5.88;;
49962;SDS011;36180;57.678;11.910;2023-05-27T11:49:12;19.23;;;6.10;;
49962;SDS011;36180;57.678;11.910;2023-05-27T11:51:41;20.27;;;5.30;;
49962;SDS011;36180;57.678;11.910;2023-05-27T11:54:16;16.58;;;5.13;;
49962;SDS011;36180;57.678;11.910;2023-05-27T11:56:44;17.58;;;5.47;;
49962;SDS011;36180;57.678;11.910;2023-05-27T11:59:11;18.55;;;4.97;;
49962;SDS011;36180;57.678;11.910;2023-05-27T12:01:39;19.17;;;6.15;;
49962;SDS011;36180;57.678;11.910;2023-05-27T12:04:07;21.63;;;6.15;;
49962;SDS011;36180;57.678;11.910;2023-05-27T12:06:35;26.52;;;5.63;;
49962;SDS011;36180;57.678;11.910;2023-05-27T12:09:03;18.48;;;5.88;;
49962;SDS011;36180;57.678;11.910;2023-05-27T12:11:32;23.25;;;5.55;;
49962;SDS011;36180;57.678;11.910;2023-05-27T12:13:59;24.40;;;6.50;;
49962;SDS011;36180;57.678;11.910;2023-05-27T12:16:26;21.15;;;5.45;;
49962;SDS011;36180;57.678;11.910;2023-05-27T12:18:54;24.67;;;6.82;;
49962;SDS011;36180;57.678;11.910;2023-05-27T12:21:22;19.90;;;6.35;;
49962;SDS011;36180;57.678;11.910;2023-05-27T12:23:49;21.38;;;6.05;;
49962;SDS011;36180;57.678;11.910;2023-05-27T12:26:17;21.85;;;6.30;;
49962;SDS011;36180;57.678;11.910;2023-05-27T12:28:44;22.55;;;6.30;;
49962;SDS011;36180;57.678;11.910;2023-05-27T12:31:11;21.67;;;6.15;;
49962;SDS011;36180;57.678;11.910;2023-05-27T12:33:38;22.95;;;6.55;;
49962;SDS011;36180;57.678;11.910;2023-05-27T12:36:05;21.40;;;5.88;;
49962;SDS011;36180;57.678;11.910;2023-05-27T12:38:34;17.52;;;5.13;;
49962;SDS011;36180;57.678;11.910;2023-05-27T12:41:01;22.13;;;6.35;;
49962;SDS011;36180;57.678;11.910;2023-05-27T12:43:28;24.88;;;6.13;;
49962;SDS011;36180;57.678;11.910;2023-05-27T12:45:55;24.95;;;6.32;;
49962;SDS011;36180;57.678;11.910;2023-05-27T12:48:22;24.90;;;5.68;;
49962;SDS011;36180;57.678;11.910;2023-05-27T12:50:49;24.42;;;6.28;;
49962;SDS011;36180;57.678;11.910;2023-05-27T12:53:16;18.08;;;5.40;;
49962;SDS011;36180;57.678;11.910;2023-05-27T12:55:45;19.65;;;5.38;;
49962;SDS011;36180;57.678;11.910;2023-05-27T12:58:12;23.58;;;5.63;;
49962;SDS011;36180;57.678;11.910;2023-05-27T13:00:39;20.52;;;5.55;;
49962;SDS011;36180;57.678;11.910;2023-05-27T13:03:06;17.58;;;5.22;;
49962;SDS011;36180;57.678;11.910;2023-05-27T13:05:34;17.13;;;5.32;;
49962;SDS011;36180;57.678;11.910;2023-05-27T13:08:01;25.95;;;6.32;;
49962;SDS011;36180;57.678;11.910;2023-05-27T13:10:29;22.10;;;5.75;;
49962;SDS011;36180;57.678;11.910;2023-05-27T13:12:59;24.10;;;5.53;;
49962;SDS011;36180;57.678;11.910;2023-05-27T13:15:27;21.35;;;5.85;;
49962;SDS011;36180;57.678;11.910;2023-05-27T13:17:55;17.30;;;5.85;;
49962;SDS011;36180;57.678;11.910;2023-05-27T13:20:24;17.65;;;4.70;;
49962;SDS011;36180;57.678;11.910;2023-05-27T13:22:53;16.48;;;4.20;;
49962;SDS011;36180;57.678;11.910;2023-05-27T13:25:25;18.70;;;5.75;;
49962;SDS011;36180;57.678;11.910;2023-05-27T13:27:53;26.98;;;5.50;;
49962;SDS011;36180;57.678;11.910;2023-05-27T13:30:22;18.10;;;5.10;;
49962;SDS011;36180;57.678;11.910;2023-05-27T13:32:50;19.95;;;4.50;;
49962;SDS011;36180;57.678;11.910;2023-05-27T13:35:18;19.85;;;5.50;;
49962;SDS011;36180;57.678;11.910;2023-05-27T13:37:45;20.20;;;4.97;;
49962;SDS011;36180;57.678;11.910;2023-05-27T13:40:12;18.08;;;5.03;;
49962;SDS011;36180;57.678;11.910;2023-05-27T13:42:39;17.90;;;5.30;;
49962;SDS011;36180;57.678;11.910;2023-05-27T13:45:07;20.63;;;5.18;;
49962;SDS011;36180;57.678;11.910;2023-05-27T13:47:36;15.80;;;4.82;;
49962;SDS011;36180;57.678;11.910;2023-05-27T13:50:06;16.48;;;4.72;;
49962;SDS011;36180;57.678;11.910;2023-05-27T13:52:33;21.13;;;4.90;;
49962;SDS011;36180;57.678;11.910;2023-05-27T13:55:01;17.90;;;4.82;;
49962;SDS011;36180;57.678;11.910;2023-05-27T13:57:29;19.10;;;5.00;;
49962;SDS011;36180;57.678;11.910;2023-05-27T13:59:56;17.73;;;4.88;;
49962;SDS011;36180;57.678;11.910;2023-05-27T14:02:23;17.05;;;4.75;;
49962;SDS011;36180;57.678;11.910;2023-05-27T14:04:51;17.60;;;5.05;;
49962;SDS011;36180;57.678;11.910;2023-05-27T14:07:18;17.00;;;4.47;;
49962;SDS011;36180;57.678;11.910;2023-05-27T14:09:45;15.90;;;4.20;;
49962;SDS011;36180;57.678;11.910;2023-05-27T14:12:13;17.10;;;4.38;;
49962;SDS011;36180;57.678;11.910;2023-05-27T14:14:40;17.13;;;4.45;;
49962;SDS011;36180;57.678;11.910;2023-05-27T14:17:07;21.98;;;4.97;;
49962;SDS011;36180;57.678;11.910;2023-05-27T14:19:34;18.17;;;5.22;;
49962;SDS011;36180;57.678;11.910;2023-05-27T14:22:03;17.90;;;4.78;;
49962;SDS011;36180;57.678;11.910;2023-05-27T14:24:30;12.30;;;4.22;;
49962;SDS011;36180;57.678;11.910;2023-05-27T14:26:57;16.75;;;4.45;;
49962;SDS011;36180;57.678;11.910;2023-05-27T14:29:24;20.77;;;5.38;;
49962;SDS011;36180;57.678;11.910;2023-05-27T14:31:51;16.10;;;4.65;;
49962;SDS011;36180;57.678;11.910;2023-05-27T14:34:18;15.73;;;4.53;;